createdAt,value
2019-02-26T00:01:55.154Z,11.03
2019-02-26T00:04:25.455Z,9.83
2019-02-26T00:06:58.034Z,8.97
2019-02-26T00:09:28.354Z,11.23
2019-02-26T00:11:57.884Z,8.53
2019-02-26T00:14:27.587Z,10.77
2019-02-26T00:16:57.175Z,9.33
2019-02-26T00:19:25.874Z,7.50
2019-02-26T00:21:54.565Z,10.73
2019-02-26T00:24:30.552Z,11.33
2019-02-26T00:29:44.337Z,8.33
2019-02-26T00:32:14.002Z,9.33
2019-02-26T00:34:43.726Z,10.30
2019-02-26T00:37:14.979Z,10.57
2019-02-26T00:39:45.252Z,8.33
2019-02-26T00:42:14.071Z,9.23
2019-02-26T00:44:42.824Z,11.17
2019-02-26T00:47:11.570Z,7.27
2019-02-26T00:49:41.911Z,8.83
2019-02-26T00:52:13.282Z,9.30
2019-02-26T00:54:41.225Z,7.13
2019-02-26T00:57:11.539Z,12.83
2019-02-26T00:59:42.004Z,13.13
2019-02-26T01:02:11.551Z,11.53
2019-02-26T01:04:41.486Z,9.37
2019-02-26T01:07:10.769Z,8.57
2019-02-26T01:09:39.531Z,8.50
2019-02-26T01:12:09.225Z,8.80
2019-02-26T01:14:39.237Z,11.03
2019-02-26T01:17:10.001Z,9.03
2019-02-26T01:19:40.802Z,11.27
2019-02-26T01:22:09.885Z,9.97
2019-02-26T01:24:38.668Z,12.00
2019-02-26T01:27:07.329Z,9.80
2019-02-26T01:29:36.068Z,10.33
2019-02-26T01:32:08.847Z,7.70
2019-02-26T01:34:35.208Z,7.97
2019-02-26T01:37:08.203Z,8.23
2019-02-26T01:39:38.343Z,7.00
2019-02-26T01:42:07.856Z,9.17
2019-02-26T01:44:38.064Z,11.47
2019-02-26T01:47:07.008Z,6.87
2019-02-26T01:49:37.318Z,9.40
2019-02-26T01:52:06.646Z,9.97
2019-02-26T01:54:37.330Z,9.80
2019-02-26T01:57:09.140Z,10.43
2019-02-26T01:59:37.246Z,8.73
2019-02-26T02:02:06.041Z,9.37
2019-02-26T02:04:36.644Z,9.00
2019-02-26T02:07:06.032Z,8.57
2019-02-26T02:09:35.027Z,9.83
2019-02-26T02:12:07.106Z,7.63
2019-02-26T02:14:35.715Z,5.70
2019-02-26T02:17:06.118Z,8.17
2019-02-26T02:19:34.853Z,5.53
2019-02-26T02:22:03.652Z,9.07
2019-02-26T02:24:32.338Z,9.03
2019-02-26T02:27:00.991Z,6.67
2019-02-26T02:29:30.797Z,6.03
2019-02-26T02:32:02.371Z,7.17
2019-02-26T02:34:32.649Z,7.70
2019-02-26T02:37:00.310Z,6.07
2019-02-26T02:39:29.201Z,6.87
2019-02-26T02:41:58.079Z,6.13
2019-02-26T02:44:26.993Z,4.60
2019-02-26T02:46:55.720Z,5.80
2019-02-26T02:49:29.566Z,7.57
2019-02-26T02:51:58.956Z,6.57
2019-02-26T02:54:28.401Z,5.73
2019-02-26T02:57:00.006Z,4.97
2019-02-26T02:59:31.008Z,5.63
2019-02-26T03:02:00.214Z,5.47
2019-02-26T03:04:31.170Z,5.00
2019-02-26T03:07:00.632Z,9.57
2019-02-26T03:09:31.730Z,5.20
2019-02-26T03:12:00.202Z,4.90
2019-02-26T03:14:32.471Z,7.10
2019-02-26T03:16:59.284Z,5.20
2019-02-26T03:19:35.566Z,6.20
2019-02-26T03:22:09.607Z,5.80
2019-02-26T03:24:37.779Z,5.17
2019-02-26T03:27:06.616Z,7.23
2019-02-26T03:29:35.361Z,3.40
2019-02-26T03:32:04.081Z,3.67
2019-02-26T03:34:32.911Z,4.60
2019-02-26T03:37:03.865Z,3.87
2019-02-26T03:39:32.070Z,3.20
2019-02-26T03:42:00.855Z,5.67
2019-02-26T03:44:30.366Z,4.53
2019-02-26T03:46:59.384Z,3.20
2019-02-26T03:49:49.720Z,4.10
2019-02-26T03:52:18.519Z,2.90
2019-02-26T03:54:50.698Z,6.00
2019-02-26T03:57:22.054Z,4.00
2019-02-26T03:59:50.070Z,3.93
2019-02-26T04:02:20.887Z,3.83
2019-02-26T04:04:54.050Z,3.97
2019-02-26T04:07:22.874Z,4.57
2019-02-26T04:09:53.942Z,4.63
2019-02-26T04:12:22.998Z,3.80
2019-02-26T04:14:53.986Z,3.63
2019-02-26T04:17:27.858Z,5.33
2019-02-26T04:19:56.736Z,3.33
2019-02-26T04:22:31.906Z,5.13
2019-02-26T04:25:12.350Z,4.37
2019-02-26T04:27:57.031Z,4.70
2019-02-26T04:30:59.249Z,3.93
2019-02-26T04:33:41.410Z,5.23
2019-02-26T04:36:28.452Z,3.70
2019-02-26T04:39:22.086Z,4.63
2019-02-26T04:42:17.382Z,3.23
2019-02-26T04:45:09.066Z,3.30
2019-02-26T04:47:57.362Z,3.77
2019-02-26T04:50:28.901Z,3.07
2019-02-26T04:52:59.118Z,3.47
2019-02-26T04:55:27.197Z,2.40
2019-02-26T04:57:56.116Z,3.83
2019-02-26T05:00:28.005Z,2.50
2019-02-26T05:02:55.209Z,2.80
2019-02-26T05:05:25.855Z,3.33
2019-02-26T05:07:54.456Z,2.77
2019-02-26T05:10:24.381Z,3.13
2019-02-26T05:13:01.008Z,3.73
2019-02-26T05:15:30.919Z,5.77
2019-02-26T05:18:00.213Z,5.20
2019-02-26T05:20:31.241Z,6.80
2019-02-26T05:23:01.060Z,4.90
2019-02-26T05:25:31.484Z,3.13
2019-02-26T05:28:00.163Z,3.63
2019-02-26T05:30:28.947Z,2.60
2019-02-26T05:33:00.241Z,3.60
2019-02-26T05:35:28.084Z,5.57
2019-02-26T05:38:00.349Z,4.13
2019-02-26T05:40:28.225Z,3.10
2019-02-26T05:43:04.695Z,4.73
2019-02-26T05:45:43.065Z,4.73
2019-02-26T05:48:04.554Z,3.57
2019-02-26T05:50:35.566Z,3.83
2019-02-26T05:53:05.665Z,5.10
2019-02-26T05:55:41.631Z,3.23
2019-02-26T05:58:04.978Z,3.17
2019-02-26T06:00:35.734Z,3.67
2019-02-26T06:03:09.003Z,4.27
2019-02-26T06:05:34.940Z,6.63
2019-02-26T06:08:09.607Z,4.40
2019-02-26T06:10:38.421Z,3.30
2019-02-26T06:13:08.262Z,3.07
2019-02-26T06:15:37.635Z,2.40
2019-02-26T06:18:06.407Z,3.20
2019-02-26T06:20:37.222Z,2.43
2019-02-26T06:23:05.946Z,2.50
2019-02-26T06:25:36.318Z,3.07
2019-02-26T06:28:07.664Z,3.13
2019-02-26T06:30:35.464Z,2.97
2019-02-26T06:33:06.294Z,2.13
2019-02-26T06:35:35.986Z,2.13
2019-02-26T06:38:06.832Z,2.70
2019-02-26T06:40:39.411Z,2.53
2019-02-26T06:43:08.382Z,2.40
2019-02-26T06:45:41.050Z,3.27
2019-02-26T06:48:12.575Z,2.57
2019-02-26T06:50:41.601Z,2.37
2019-02-26T06:53:11.084Z,2.70
2019-02-26T06:55:40.570Z,3.23
2019-02-26T06:58:21.106Z,2.40
2019-02-26T07:00:53.319Z,3.83
2019-02-26T07:03:24.149Z,2.50
2019-02-26T07:05:50.630Z,2.63
2019-02-26T07:08:21.170Z,2.10
2019-02-26T07:10:49.758Z,2.20
2019-02-26T07:13:18.462Z,3.37
2019-02-26T07:15:47.186Z,2.50
2019-02-26T07:18:19.656Z,2.00
2019-02-26T07:20:54.571Z,2.47
2019-02-26T07:23:27.311Z,2.50
2019-02-26T07:25:55.608Z,2.70
2019-02-26T07:28:26.733Z,2.10
2019-02-26T07:30:54.750Z,1.77
2019-02-26T07:33:23.596Z,2.27
2019-02-26T07:35:54.403Z,2.13
2019-02-26T07:38:23.026Z,2.80
2019-02-26T07:40:54.366Z,3.20
2019-02-26T07:43:23.710Z,3.20
2019-02-26T07:45:54.628Z,2.70
2019-02-26T07:48:23.723Z,3.00
2019-02-26T07:50:53.687Z,2.60
2019-02-26T07:53:24.567Z,2.23
2019-02-26T07:55:52.653Z,2.30
2019-02-26T07:58:22.589Z,3.03
2019-02-26T08:00:52.201Z,2.80
2019-02-26T08:03:22.441Z,2.13
2019-02-26T08:05:51.606Z,3.17
2019-02-26T08:08:21.972Z,3.50
2019-02-26T08:10:51.232Z,2.60
2019-02-26T08:13:21.122Z,2.30
2019-02-26T08:15:52.738Z,2.17
2019-02-26T08:18:24.237Z,2.13
2019-02-26T08:20:56.797Z,2.33
2019-02-26T08:23:23.895Z,2.60
2019-02-26T08:25:55.634Z,2.60
2019-02-26T08:28:24.892Z,3.00
2019-02-26T08:30:57.294Z,2.00
2019-02-26T08:33:26.069Z,1.93
2019-02-26T08:35:56.099Z,2.47
2019-02-26T08:38:29.273Z,2.50
2019-02-26T08:40:55.318Z,3.30
2019-02-26T08:43:23.994Z,2.73
2019-02-26T08:45:54.283Z,2.40
2019-02-26T08:48:24.669Z,2.17
2019-02-26T08:50:53.327Z,2.53
2019-02-26T08:53:24.273Z,2.17
2019-02-26T08:55:53.617Z,2.47
2019-02-26T08:58:23.602Z,2.60
2019-02-26T09:00:53.177Z,2.60
2019-02-26T09:03:21.890Z,2.33
2019-02-26T09:05:51.679Z,2.80
2019-02-26T09:08:23.343Z,2.30
2019-02-26T09:10:52.079Z,2.17
2019-02-26T09:13:22.328Z,2.57
2019-02-26T09:15:51.044Z,2.53
2019-02-26T09:18:20.420Z,2.40
2019-02-26T09:20:50.106Z,2.83
2019-02-26T09:23:23.915Z,2.97
2019-02-26T09:25:57.177Z,2.43
2019-02-26T09:28:25.328Z,2.50
2019-02-26T09:30:56.322Z,2.60
2019-02-26T09:33:27.637Z,1.97
2019-02-26T09:35:56.740Z,2.10
2019-02-26T09:38:25.616Z,2.17
2019-02-26T09:40:54.713Z,2.43
2019-02-26T09:43:24.708Z,2.93
2019-02-26T09:45:53.389Z,2.47
2019-02-26T09:48:22.131Z,2.10
2019-02-26T09:50:51.449Z,2.73
2019-02-26T09:53:20.088Z,3.97
2019-02-26T09:55:48.807Z,2.00
2019-02-26T09:58:18.602Z,2.20
2019-02-26T10:00:50.477Z,2.33
2019-02-26T10:03:18.253Z,2.27
2019-02-26T10:05:48.231Z,2.30
2019-02-26T10:08:21.895Z,2.90
2019-02-26T10:10:54.419Z,2.80
2019-02-26T10:13:23.264Z,2.70
2019-02-26T10:15:52.804Z,2.30
2019-02-26T10:18:23.306Z,2.17
2019-02-26T10:20:52.258Z,3.20
2019-02-26T10:23:23.978Z,1.83
2019-02-26T10:25:55.522Z,2.60
2019-02-26T10:28:22.899Z,3.33
2019-02-26T10:30:51.596Z,2.57
2019-02-26T10:33:21.126Z,2.40
2019-02-26T10:35:50.030Z,1.87
2019-02-26T10:38:19.906Z,1.67
2019-02-26T10:40:53.779Z,2.00
2019-02-26T10:43:18.905Z,1.73
2019-02-26T10:45:54.915Z,2.13
2019-02-26T10:48:27.844Z,2.13
2019-02-26T10:50:55.581Z,1.87
2019-02-26T10:53:24.317Z,2.60
2019-02-26T10:55:54.952Z,1.80
2019-02-26T10:58:23.387Z,2.30
2019-02-26T11:00:55.581Z,2.97
2019-02-26T11:03:24.008Z,2.13
2019-02-26T11:05:52.729Z,2.47
2019-02-26T11:08:24.772Z,2.67
2019-02-26T11:10:54.455Z,3.40
2019-02-26T11:13:25.598Z,2.57
2019-02-26T11:15:56.161Z,2.10
2019-02-26T11:18:23.852Z,2.30
2019-02-26T11:20:55.415Z,3.00
2019-02-26T11:23:30.352Z,2.93
2019-02-26T11:25:53.308Z,3.90
2019-02-26T11:28:27.281Z,5.20
2019-02-26T11:30:56.620Z,3.30
2019-02-26T11:33:25.538Z,3.90
2019-02-26T11:35:54.219Z,3.43
2019-02-26T11:38:24.568Z,2.80
2019-02-26T11:40:53.256Z,3.90
2019-02-26T11:43:25.557Z,3.43
2019-02-26T11:45:52.335Z,3.63
2019-02-26T11:48:25.775Z,3.50
2019-02-26T11:50:53.873Z,2.20
2019-02-26T11:53:22.635Z,2.67
2019-02-26T11:55:52.657Z,2.50
2019-02-26T11:58:22.314Z,2.80
2019-02-26T12:00:53.622Z,2.33
2019-02-26T12:03:25.023Z,2.20
2019-02-26T12:05:54.182Z,2.67
2019-02-26T12:08:25.699Z,2.23
2019-02-26T12:10:57.497Z,2.17
2019-02-26T12:13:25.055Z,2.60
2019-02-26T12:15:54.430Z,2.17
2019-02-26T12:18:23.125Z,2.33
2019-02-26T12:20:51.818Z,2.53
2019-02-26T12:23:22.792Z,5.17
2019-02-26T12:25:53.628Z,3.30
2019-02-26T12:28:21.292Z,2.67
2019-02-26T12:30:50.047Z,2.27
2019-02-26T12:33:18.714Z,2.60
2019-02-26T12:35:48.370Z,2.63
2019-02-26T12:38:21.143Z,2.53
2019-02-26T12:40:49.950Z,2.73
2019-02-26T12:43:19.274Z,6.67
2019-02-26T12:45:51.443Z,2.30
2019-02-26T12:48:22.729Z,2.40
2019-02-26T12:50:52.088Z,3.57
2019-02-26T12:53:23.551Z,2.63
2019-02-26T12:55:54.029Z,2.67
2019-02-26T12:58:24.418Z,2.60
2019-02-26T13:00:52.405Z,2.20
2019-02-26T13:03:23.543Z,2.33
2019-02-26T13:05:52.208Z,2.40
2019-02-26T13:08:24.143Z,3.07
2019-02-26T13:10:56.102Z,2.60
2019-02-26T13:13:23.191Z,2.83
2019-02-26T13:15:51.927Z,3.00
2019-02-26T13:18:23.622Z,3.60
2019-02-26T13:20:59.228Z,2.97
2019-02-26T13:23:22.671Z,3.37
2019-02-26T13:25:51.385Z,3.63
2019-02-26T13:28:29.393Z,2.60
2019-02-26T13:30:53.266Z,2.30
2019-02-26T13:33:32.526Z,4.00
2019-02-26T13:36:00.360Z,3.10
2019-02-26T13:38:34.140Z,3.03
2019-02-26T13:41:08.756Z,3.20
2019-02-26T13:43:26.232Z,3.60
2019-02-26T13:45:54.959Z,3.53
2019-02-26T13:48:23.815Z,4.63
2019-02-26T13:50:52.554Z,3.50
2019-02-26T13:53:21.297Z,4.13
2019-02-26T13:55:49.973Z,3.33
2019-02-26T13:58:18.659Z,4.73
2019-02-26T14:00:47.425Z,4.43
2019-02-26T14:03:16.856Z,3.70
2019-02-26T14:05:48.414Z,4.47
2019-02-26T14:08:17.155Z,3.77
2019-02-26T14:10:45.863Z,2.43
2019-02-26T14:13:14.548Z,3.23
2019-02-26T14:15:44.798Z,2.73
2019-02-26T14:18:15.690Z,3.43
2019-02-26T14:20:45.609Z,3.13
2019-02-26T14:23:14.451Z,3.13
2019-02-26T14:25:43.647Z,4.97
2019-02-26T14:28:12.347Z,8.47
2019-02-26T14:30:41.078Z,4.60
2019-02-26T14:33:09.757Z,4.20
2019-02-26T14:35:38.454Z,5.57
2019-02-26T14:38:07.394Z,6.20
2019-02-26T14:40:36.082Z,3.57
2019-02-26T14:43:04.774Z,3.60
2019-02-26T14:45:33.508Z,5.50
2019-02-26T14:48:02.184Z,4.03
2019-02-26T14:50:30.855Z,4.93
2019-02-26T14:52:59.599Z,5.53
2019-02-26T14:55:30.277Z,5.70
2019-02-26T14:57:58.972Z,4.83
2019-02-26T15:00:30.946Z,4.70
2019-02-26T15:02:59.584Z,5.60
2019-02-26T15:05:28.289Z,3.97
2019-02-26T15:07:57.064Z,4.93
2019-02-26T15:10:25.780Z,6.30
2019-02-26T15:12:54.818Z,7.13
2019-02-26T15:15:24.930Z,7.60
2019-02-26T15:17:53.600Z,5.93
2019-02-26T15:20:28.464Z,6.97
2019-02-26T15:22:57.180Z,7.60
2019-02-26T15:25:33.388Z,5.87
2019-02-26T15:28:04.933Z,5.50
2019-02-26T15:30:32.410Z,7.03
2019-02-26T15:33:01.140Z,7.07
2019-02-26T15:35:29.810Z,7.90
2019-02-26T15:37:58.553Z,6.67
2019-02-26T15:40:27.333Z,7.23
2019-02-26T15:42:59.571Z,7.03
2019-02-26T15:45:31.935Z,7.43
2019-02-26T15:48:03.817Z,7.50
2019-02-26T15:50:30.996Z,7.43
2019-02-26T15:53:01.273Z,7.30
2019-02-26T15:55:31.485Z,7.23
2019-02-26T15:58:03.140Z,5.53
2019-02-26T16:00:30.564Z,5.50
2019-02-26T16:03:00.022Z,5.27
2019-02-26T16:05:34.070Z,6.03
2019-02-26T16:08:04.059Z,5.07
2019-02-26T16:10:32.725Z,6.00
2019-02-26T16:13:05.750Z,5.00
2019-02-26T16:15:35.725Z,6.20
2019-02-26T16:18:04.438Z,5.73
2019-02-26T16:20:34.405Z,5.73
2019-02-26T16:23:03.069Z,4.43
2019-02-26T16:25:31.769Z,4.33
2019-02-26T16:28:00.553Z,3.63
2019-02-26T16:30:29.639Z,4.23
2019-02-26T16:32:58.354Z,3.90
2019-02-26T16:35:27.198Z,4.73
2019-02-26T16:37:55.870Z,5.43
2019-02-26T16:40:24.572Z,3.13
2019-02-26T16:42:53.324Z,3.30
2019-02-26T16:45:26.290Z,4.00
2019-02-26T16:47:57.618Z,3.40
2019-02-26T16:50:30.783Z,4.77
2019-02-26T16:53:00.338Z,3.33
2019-02-26T16:55:30.060Z,4.10
2019-02-26T16:58:03.186Z,3.83
2019-02-26T17:00:31.404Z,4.00
2019-02-26T17:03:01.218Z,5.00
2019-02-26T17:05:30.460Z,4.20
2019-02-26T17:07:59.406Z,4.80
2019-02-26T17:10:30.232Z,3.30
2019-02-26T17:13:02.000Z,2.70
2019-02-26T17:15:32.852Z,2.83
2019-02-26T17:18:01.605Z,3.27
2019-02-26T17:20:32.284Z,4.03
2019-02-26T17:23:00.694Z,2.97
2019-02-26T17:25:30.901Z,2.77
2019-02-26T17:27:59.675Z,2.73
2019-02-26T17:30:29.376Z,2.50
2019-02-26T17:32:58.165Z,3.00
2019-02-26T17:35:29.586Z,3.97
2019-02-26T17:37:57.350Z,3.60
2019-02-26T17:40:27.603Z,3.90
2019-02-26T17:42:57.244Z,3.17
2019-02-26T17:45:34.969Z,4.63
2019-02-26T17:48:02.589Z,4.87
2019-02-26T17:50:34.132Z,4.00
2019-02-26T17:53:02.841Z,4.17
2019-02-26T17:55:31.584Z,4.83
2019-02-26T17:58:00.829Z,6.27
2019-02-26T18:00:31.293Z,5.87
2019-02-26T18:03:00.150Z,3.83
2019-02-26T18:05:28.823Z,7.03
2019-02-26T18:07:57.496Z,6.60
2019-02-26T18:10:28.518Z,6.37
2019-02-26T18:12:58.721Z,5.70
2019-02-26T18:15:27.441Z,6.20
2019-02-26T18:17:56.192Z,4.97
2019-02-26T18:20:27.751Z,4.77
2019-02-26T18:22:55.224Z,3.93
2019-02-26T18:25:24.998Z,3.43
2019-02-26T18:27:53.692Z,4.23
2019-02-26T18:30:28.006Z,4.17
2019-02-26T18:32:58.980Z,2.87
2019-02-26T18:35:27.317Z,3.30
2019-02-26T18:37:56.637Z,3.40
2019-02-26T18:40:28.275Z,5.00
2019-02-26T18:42:58.985Z,3.77
2019-02-26T18:45:29.153Z,3.37
2019-02-26T18:47:57.976Z,3.03
2019-02-26T18:50:29.500Z,3.77
2019-02-26T18:52:59.941Z,3.33
2019-02-26T18:55:32.339Z,3.73
2019-02-26T18:57:58.959Z,4.03
2019-02-26T19:00:31.883Z,2.77
2019-02-26T19:03:00.754Z,3.07
2019-02-26T19:05:32.497Z,3.00
2019-02-26T19:08:05.593Z,3.87
2019-02-26T19:10:36.140Z,2.47
2019-02-26T19:13:05.208Z,2.70
2019-02-26T19:15:35.273Z,3.40
2019-02-26T19:18:05.592Z,3.07
2019-02-26T19:20:39.074Z,2.87
2019-02-26T19:23:09.109Z,3.37
2019-02-26T19:25:41.378Z,3.17
2019-02-26T19:28:09.836Z,3.70
2019-02-26T19:30:38.659Z,3.73
2019-02-26T19:33:07.364Z,5.27
2019-02-26T19:35:40.207Z,4.43
2019-02-26T19:38:06.541Z,4.50
2019-02-26T19:40:50.574Z,3.40
2019-02-26T19:43:25.707Z,4.40
2019-02-26T19:45:53.940Z,4.33
2019-02-26T19:48:22.931Z,3.67
2019-02-26T19:50:51.726Z,6.53
2019-02-26T19:53:20.433Z,6.53
2019-02-26T19:55:50.094Z,4.90
2019-02-26T19:58:18.888Z,4.13
2019-02-26T20:00:47.594Z,4.73
2019-02-26T20:03:16.619Z,4.20
2019-02-26T20:05:46.576Z,5.07
2019-02-26T20:08:15.693Z,5.73
2019-02-26T20:10:49.137Z,5.77
2019-02-26T20:13:18.082Z,4.63
2019-02-26T20:15:46.768Z,3.57
2019-02-26T20:18:20.640Z,3.77
2019-02-26T20:20:50.787Z,5.50
2019-02-26T20:23:16.802Z,5.17
2019-02-26T20:25:47.205Z,4.07
2019-02-26T20:28:15.930Z,4.80
2019-02-26T20:30:44.756Z,4.63
2019-02-26T20:33:13.513Z,4.67
2019-02-26T20:35:45.133Z,7.10
2019-02-26T20:38:12.720Z,4.27
2019-02-26T20:40:41.744Z,4.07
2019-02-26T20:43:10.487Z,3.80
2019-02-26T20:45:44.817Z,5.20
2019-02-26T20:48:14.211Z,4.30
2019-02-26T20:50:43.047Z,4.43
2019-02-26T20:53:13.394Z,5.20
2019-02-26T20:55:42.357Z,4.10
2019-02-26T20:58:12.389Z,4.57
2019-02-26T21:00:42.539Z,4.63
2019-02-26T21:03:13.373Z,4.80
2019-02-26T21:05:44.813Z,5.97
2019-02-26T21:08:13.137Z,3.50
2019-02-26T21:10:41.931Z,7.77
2019-02-26T21:13:11.410Z,4.33
2019-02-26T21:15:40.908Z,5.00
2019-02-26T21:18:11.400Z,5.23
2019-02-26T21:20:41.116Z,4.33
2019-02-26T21:23:10.730Z,5.50
2019-02-26T21:25:43.897Z,4.27
2019-02-26T21:28:10.894Z,3.80
2019-02-26T21:30:45.644Z,4.77
2019-02-26T21:33:12.486Z,4.87
2019-02-26T21:35:41.173Z,4.07
2019-02-26T21:38:10.254Z,4.00
2019-02-26T21:40:39.526Z,4.13
2019-02-26T21:43:08.634Z,4.13
2019-02-26T21:45:39.228Z,3.60
2019-02-26T21:48:08.045Z,4.80
2019-02-26T21:50:39.117Z,4.87
2019-02-26T21:53:07.441Z,4.03
2019-02-26T21:55:44.335Z,4.73
2019-02-26T21:58:08.199Z,5.87
2019-02-26T22:00:39.006Z,4.90
2019-02-26T22:03:08.113Z,4.63
2019-02-26T22:05:43.461Z,5.33
2019-02-26T22:08:12.252Z,5.13
2019-02-26T22:10:42.806Z,7.37
2019-02-26T22:13:13.944Z,5.67
2019-02-26T22:15:44.574Z,4.20
2019-02-26T22:18:13.327Z,4.83
2019-02-26T22:20:43.519Z,7.07
2019-02-26T22:23:12.335Z,6.23
2019-02-26T22:25:43.828Z,5.63
2019-02-26T22:28:12.723Z,4.90
2019-02-26T22:30:41.453Z,5.50
2019-02-26T22:33:10.158Z,14.97
2019-02-26T22:35:40.858Z,8.70
2019-02-26T22:38:15.070Z,8.67
2019-02-26T22:40:42.251Z,7.57
2019-02-26T22:43:13.804Z,7.90
2019-02-26T22:45:43.121Z,7.60
2019-02-26T22:48:13.708Z,6.93
2019-02-26T22:50:42.114Z,6.20
2019-02-26T22:53:10.839Z,8.40
2019-02-26T22:55:39.839Z,5.83
2019-02-26T22:58:08.543Z,6.83
2019-02-26T23:00:54.360Z,10.03
2019-02-26T23:03:23.072Z,11.13
2019-02-26T23:05:51.720Z,10.43
2019-02-26T23:08:20.490Z,7.53
2019-02-26T23:10:51.424Z,4.53
2019-02-26T23:13:23.148Z,5.83
2019-02-26T23:15:51.829Z,7.07
2019-02-26T23:18:20.500Z,7.70
2019-02-26T23:20:50.838Z,6.43
2019-02-26T23:23:21.649Z,9.03
2019-02-26T23:25:51.448Z,7.20
2019-02-26T23:28:21.958Z,9.97
2019-02-26T23:30:52.458Z,6.50
2019-02-26T23:33:21.145Z,13.60
2019-02-26T23:35:54.877Z,12.97
2019-02-26T23:38:22.063Z,12.63
2019-02-26T23:40:50.811Z,6.20
2019-02-26T23:43:19.567Z,10.43
2019-02-26T23:45:48.255Z,7.13
2019-02-26T23:48:16.947Z,6.47
2019-02-26T23:50:47.389Z,6.47
2019-02-26T23:53:19.300Z,7.10
2019-02-26T23:55:48.036Z,8.07
2019-02-26T23:58:18.356Z,5.50
